createdAt,value
2022-11-06T00:00:40.740Z,11.20
2022-11-06T00:01:41.353Z,15.70
2022-11-06T00:02:40.762Z,13.80
2022-11-06T00:03:40.716Z,12.00
2022-11-06T00:04:40.712Z,12.00
2022-11-06T00:05:40.954Z,14.80
2022-11-06T00:06:40.693Z,13.50
2022-11-06T00:07:40.688Z,9.80
2022-11-06T00:08:40.691Z,14.10
2022-11-06T00:09:40.677Z,13.50
2022-11-06T00:10:40.693Z,12.70
2022-11-06T00:11:41.655Z,13.60
2022-11-06T00:12:40.656Z,14.30
2022-11-06T00:13:40.680Z,14.30
2022-11-06T00:14:40.646Z,15.00
2022-11-06T00:15:40.678Z,11.80
2022-11-06T00:16:40.654Z,12.80
2022-11-06T00:17:40.641Z,16.00
2022-11-06T00:18:40.626Z,14.50
2022-11-06T00:19:40.620Z,12.90
2022-11-06T00:20:40.604Z,12.90
2022-11-06T00:21:40.603Z,15.30
2022-11-06T00:22:40.594Z,14.60
2022-11-06T00:23:40.587Z,14.50
2022-11-06T00:24:40.585Z,13.80
2022-11-06T00:25:40.567Z,14.60
2022-11-06T00:26:41.911Z,13.90
2022-11-06T00:27:40.567Z,16.20
2022-11-06T00:28:40.564Z,16.30
2022-11-06T00:29:40.576Z,13.90
2022-11-06T00:30:40.540Z,16.00
2022-11-06T00:31:41.245Z,15.80
2022-11-06T00:32:40.533Z,16.30
2022-11-06T00:33:40.517Z,14.50
2022-11-06T00:34:40.507Z,15.00
2022-11-06T00:35:40.539Z,16.20
2022-11-06T00:36:40.963Z,16.30
2022-11-06T00:37:40.497Z,14.40
2022-11-06T00:38:40.488Z,15.60
2022-11-06T00:39:40.481Z,13.10
2022-11-06T00:40:40.477Z,15.30
2022-11-06T00:41:40.463Z,14.70
2022-11-06T00:42:40.648Z,14.60
2022-11-06T00:43:40.485Z,16.90
2022-11-06T00:44:40.457Z,15.60
2022-11-06T00:45:40.461Z,14.80
2022-11-06T00:46:40.429Z,13.10
2022-11-06T00:47:40.490Z,17.80
2022-11-06T00:48:40.422Z,14.70
2022-11-06T00:49:40.421Z,14.90
2022-11-06T00:50:40.411Z,15.40
2022-11-06T00:51:41.165Z,13.40
2022-11-06T00:52:40.397Z,14.40
2022-11-06T00:53:40.393Z,14.90
2022-11-06T00:54:40.383Z,14.30
2022-11-06T00:55:40.377Z,16.70
2022-11-06T00:56:40.367Z,13.90
2022-11-06T00:57:40.371Z,15.00
2022-11-06T00:58:40.374Z,13.80
2022-11-06T00:59:40.353Z,15.80
2022-11-06T01:00:40.341Z,14.50
2022-11-06T01:01:40.540Z,15.80
2022-11-06T01:02:41.168Z,15.80
2022-11-06T01:03:40.324Z,15.40
2022-11-06T01:04:40.323Z,18.30
2022-11-06T01:05:40.312Z,13.20
2022-11-06T01:06:40.301Z,14.40
2022-11-06T01:07:40.302Z,13.80
2022-11-06T01:08:40.297Z,15.10
2022-11-06T01:09:40.732Z,15.60
2022-11-06T01:10:40.543Z,14.60
2022-11-06T01:12:11.289Z,13.00
2022-11-06T01:12:41.268Z,15.80
2022-11-06T01:13:40.256Z,15.00
2022-11-06T01:14:40.260Z,16.80
2022-11-06T01:15:40.682Z,14.60
2022-11-06T01:16:40.267Z,17.00
2022-11-06T01:17:40.346Z,17.30
2022-11-06T01:18:40.230Z,17.00
2022-11-06T01:19:40.234Z,16.20
2022-11-06T01:20:40.217Z,17.00
2022-11-06T01:21:40.212Z,15.40
2022-11-06T01:22:40.405Z,16.90
2022-11-06T01:23:40.200Z,15.80
2022-11-06T01:24:40.309Z,15.70
2022-11-06T01:25:40.215Z,17.00
2022-11-06T01:26:53.285Z,16.90
2022-11-06T01:27:41.749Z,15.30
2022-11-06T01:28:40.170Z,17.60
2022-11-06T01:29:40.155Z,16.10
2022-11-06T01:30:40.151Z,17.50
2022-11-06T01:31:40.166Z,18.00
2022-11-06T01:32:40.142Z,16.50
2022-11-06T01:33:40.157Z,15.80
2022-11-06T01:34:40.123Z,17.10
2022-11-06T01:35:40.159Z,17.40
2022-11-06T01:36:40.107Z,17.80
2022-11-06T01:37:40.162Z,17.50
2022-11-06T01:38:40.547Z,15.80
2022-11-06T01:39:40.087Z,20.60
2022-11-06T01:40:40.090Z,15.30
2022-11-06T01:41:40.091Z,16.50
2022-11-06T01:42:40.065Z,19.60
2022-11-06T01:43:40.065Z,16.10
2022-11-06T01:44:40.060Z,17.50
2022-11-06T01:45:40.052Z,19.90
2022-11-06T01:46:40.905Z,16.40
2022-11-06T01:47:40.033Z,16.10
2022-11-06T01:48:40.027Z,16.00
2022-11-06T01:49:40.050Z,18.70
2022-11-06T01:50:40.020Z,20.70
2022-11-06T01:51:40.010Z,15.90
2022-11-06T01:52:40.007Z,18.90
2022-11-06T01:53:39.993Z,20.10
2022-11-06T01:54:39.985Z,19.50
2022-11-06T01:55:39.991Z,20.00
2022-11-06T01:56:40.036Z,19.90
2022-11-06T01:57:39.973Z,16.30
2022-11-06T01:58:39.966Z,20.80
2022-11-06T01:59:39.952Z,20.00
2022-11-06T02:00:39.959Z,17.80
2022-11-06T02:01:40.104Z,20.40
2022-11-06T02:02:40.131Z,20.40
2022-11-06T02:03:39.930Z,21.30
2022-11-06T02:04:40.585Z,17.30
2022-11-06T02:05:39.936Z,19.50
2022-11-06T02:06:40.009Z,21.70
2022-11-06T02:07:39.902Z,19.70
2022-11-06T02:08:39.904Z,21.10
2022-11-06T02:09:39.895Z,19.20
2022-11-06T02:10:39.893Z,23.20
2022-11-06T02:11:40.154Z,22.20
2022-11-06T02:12:39.863Z,22.40
2022-11-06T02:13:39.850Z,25.40
2022-11-06T02:14:39.857Z,23.30
2022-11-06T02:15:39.847Z,22.30
2022-11-06T02:16:39.828Z,24.80
2022-11-06T02:17:39.828Z,23.80
2022-11-06T02:18:39.822Z,22.40
2022-11-06T02:19:39.811Z,24.10
2022-11-06T02:20:39.838Z,21.80
2022-11-06T02:21:39.827Z,28.40
2022-11-06T02:22:39.797Z,26.30
2022-11-06T02:23:39.784Z,24.40
2022-11-06T02:24:39.794Z,24.50
2022-11-06T02:25:39.770Z,24.60
2022-11-06T02:26:39.765Z,22.20
2022-11-06T02:27:39.763Z,25.40
2022-11-06T02:28:39.752Z,25.00
2022-11-06T02:29:40.192Z,21.50
2022-11-06T02:30:39.763Z,20.40
2022-11-06T02:31:39.733Z,21.10
2022-11-06T02:32:39.737Z,21.30
2022-11-06T02:33:39.718Z,17.60
2022-11-06T02:34:39.715Z,23.80
2022-11-06T02:35:39.711Z,20.50
2022-11-06T02:36:39.812Z,20.80
2022-11-06T02:37:39.817Z,18.90
2022-11-06T02:38:39.693Z,19.80
2022-11-06T02:39:39.680Z,19.40
2022-11-06T02:40:40.097Z,20.20
2022-11-06T02:41:39.669Z,15.90
2022-11-06T02:42:39.675Z,16.70
2022-11-06T02:43:39.689Z,21.10
2022-11-06T02:44:39.710Z,18.40
2022-11-06T02:45:39.630Z,15.60
2022-11-06T02:46:39.625Z,15.10
2022-11-06T02:47:39.626Z,17.20
2022-11-06T02:48:39.896Z,15.00
2022-11-06T02:49:39.613Z,16.20
2022-11-06T02:50:39.606Z,20.10
2022-11-06T02:51:40.207Z,16.50
2022-11-06T02:52:39.587Z,16.00
2022-11-06T02:53:39.760Z,15.00
2022-11-06T02:54:39.579Z,16.70
2022-11-06T02:55:39.565Z,16.20
2022-11-06T02:56:39.572Z,17.00
2022-11-06T02:57:39.599Z,13.90
2022-11-06T02:58:41.599Z,12.60
2022-11-06T02:59:39.554Z,16.00
2022-11-06T03:00:39.542Z,16.20
2022-11-06T03:01:39.681Z,16.40
2022-11-06T03:02:39.776Z,14.70
2022-11-06T03:03:39.507Z,13.00
2022-11-06T03:04:39.522Z,14.50
2022-11-06T03:05:39.502Z,15.10
2022-11-06T03:06:39.491Z,15.10
2022-11-06T03:07:39.508Z,13.00
2022-11-06T03:08:40.176Z,17.70
2022-11-06T03:09:39.492Z,17.40
2022-11-06T03:10:40.125Z,15.20
2022-11-06T03:11:39.463Z,13.00
2022-11-06T03:12:39.448Z,15.80
2022-11-06T03:13:39.449Z,13.00
2022-11-06T03:14:39.443Z,13.80
2022-11-06T03:15:39.429Z,12.30
2022-11-06T03:16:39.477Z,13.10
2022-11-06T03:17:39.419Z,14.10
2022-11-06T03:18:41.573Z,14.20
2022-11-06T03:19:39.409Z,17.00
2022-11-06T03:20:39.397Z,13.20
2022-11-06T03:21:39.397Z,13.60
2022-11-06T03:22:39.407Z,16.20
2022-11-06T03:23:39.373Z,16.60
2022-11-06T03:24:39.417Z,14.00
2022-11-06T03:25:40.405Z,12.80
2022-11-06T03:26:39.357Z,17.00
2022-11-06T03:27:39.367Z,18.20
2022-11-06T03:28:39.344Z,15.10
2022-11-06T03:29:40.306Z,14.40
2022-11-06T03:30:39.332Z,14.90
2022-11-06T03:31:39.335Z,15.70
2022-11-06T03:32:39.324Z,14.00
2022-11-06T03:33:39.328Z,15.50
2022-11-06T03:34:39.311Z,12.60
2022-11-06T03:35:39.307Z,15.50
2022-11-06T03:36:39.299Z,16.00
2022-11-06T03:37:39.292Z,13.80
2022-11-06T03:38:42.208Z,13.70
2022-11-06T03:39:39.273Z,14.00
2022-11-06T03:40:39.273Z,13.90
2022-11-06T03:41:39.309Z,15.00
2022-11-06T03:42:39.272Z,14.40
2022-11-06T03:43:39.269Z,13.30
2022-11-06T03:44:39.242Z,18.10
2022-11-06T03:45:39.243Z,15.30
2022-11-06T03:46:39.237Z,16.00
2022-11-06T03:47:39.226Z,18.30
2022-11-06T03:48:39.226Z,15.50
2022-11-06T03:49:39.218Z,14.70
2022-11-06T03:50:39.219Z,17.20
2022-11-06T03:51:39.229Z,15.20
2022-11-06T03:52:39.202Z,15.80
2022-11-06T03:53:39.183Z,16.80
2022-11-06T03:54:39.180Z,15.30
2022-11-06T03:55:39.177Z,13.70
2022-11-06T03:56:39.782Z,14.30
2022-11-06T03:57:39.186Z,14.00
2022-11-06T03:58:39.706Z,16.10
2022-11-06T03:59:39.144Z,13.80
2022-11-06T04:00:39.289Z,14.20
2022-11-06T04:01:39.280Z,14.10
2022-11-06T04:02:39.241Z,14.60
2022-11-06T04:03:39.125Z,14.70
2022-11-06T04:04:39.110Z,14.00
2022-11-06T04:05:39.099Z,12.90
2022-11-06T04:06:39.097Z,17.00
2022-11-06T04:07:39.424Z,13.90
2022-11-06T04:08:39.089Z,12.80
2022-11-06T04:09:39.081Z,9.00
2022-11-06T04:10:39.067Z,15.60
2022-11-06T04:11:39.059Z,15.20
2022-11-06T04:12:39.229Z,15.40
2022-11-06T04:13:39.229Z,14.10
2022-11-06T04:14:40.208Z,17.60
2022-11-06T04:15:39.040Z,15.20
2022-11-06T04:16:39.031Z,11.40
2022-11-06T04:17:39.067Z,15.10
2022-11-06T04:18:39.016Z,10.60
2022-11-06T04:19:39.010Z,14.80
2022-11-06T04:20:39.028Z,14.40
2022-11-06T04:21:39.000Z,12.70
2022-11-06T04:22:38.983Z,14.50
2022-11-06T04:23:39.005Z,14.30
2022-11-06T04:24:38.980Z,14.30
2022-11-06T04:25:38.971Z,11.00
2022-11-06T04:26:38.971Z,15.70
2022-11-06T04:27:38.956Z,13.50
2022-11-06T04:28:38.949Z,15.40
2022-11-06T04:29:38.970Z,17.20
2022-11-06T04:30:38.930Z,13.60
2022-11-06T04:31:38.950Z,11.30
2022-11-06T04:32:38.921Z,15.20
2022-11-06T04:33:38.922Z,14.30
2022-11-06T04:34:38.910Z,14.20
2022-11-06T04:35:38.901Z,14.90
2022-11-06T04:36:38.900Z,14.50
2022-11-06T04:37:38.895Z,15.50
2022-11-06T04:38:38.981Z,12.80
2022-11-06T04:39:38.881Z,15.10
2022-11-06T04:40:38.879Z,11.90
2022-11-06T04:41:38.867Z,12.40
2022-11-06T04:42:38.862Z,12.90
2022-11-06T04:43:38.861Z,13.80
2022-11-06T04:44:38.847Z,14.80
2022-11-06T04:45:38.858Z,14.50
2022-11-06T04:46:38.831Z,11.60
2022-11-06T04:47:38.837Z,16.60
2022-11-06T04:48:38.857Z,12.80
2022-11-06T04:49:38.812Z,14.30
2022-11-06T04:50:38.796Z,15.60
2022-11-06T04:51:38.805Z,14.30
2022-11-06T04:52:59.795Z,14.10
2022-11-06T04:53:38.783Z,10.70
2022-11-06T04:54:38.777Z,14.70
2022-11-06T04:55:39.604Z,13.20
2022-11-06T04:56:44.524Z,13.80
2022-11-06T04:57:39.758Z,17.80
2022-11-06T04:58:38.820Z,15.10
2022-11-06T04:59:38.759Z,13.10
2022-11-06T05:00:38.820Z,13.80
2022-11-06T05:01:39.076Z,12.60
2022-11-06T05:02:38.716Z,14.50
2022-11-06T05:03:38.749Z,12.90
2022-11-06T05:04:39.136Z,11.60
2022-11-06T05:05:38.702Z,14.40
2022-11-06T05:06:38.698Z,10.30
2022-11-06T05:07:38.684Z,13.90
2022-11-06T05:08:38.715Z,14.00
2022-11-06T05:09:39.106Z,11.10
2022-11-06T05:10:38.671Z,12.00
2022-11-06T05:11:38.675Z,13.70
2022-11-06T05:12:38.642Z,12.10
2022-11-06T05:13:38.637Z,12.60
2022-11-06T05:14:38.646Z,11.70
2022-11-06T05:15:38.640Z,12.50
2022-11-06T05:16:38.612Z,13.10
2022-11-06T05:17:38.629Z,13.30
2022-11-06T05:18:38.612Z,14.00
2022-11-06T05:19:38.598Z,12.90
2022-11-06T05:20:39.076Z,15.00
2022-11-06T05:21:38.610Z,12.50
2022-11-06T05:22:38.574Z,12.70
2022-11-06T05:23:38.589Z,14.50
2022-11-06T05:24:38.576Z,11.20
2022-11-06T05:25:38.555Z,13.30
2022-11-06T05:26:39.266Z,14.10
2022-11-06T05:27:38.537Z,13.80
2022-11-06T05:28:38.541Z,12.30
2022-11-06T05:29:38.531Z,10.60
2022-11-06T05:30:38.553Z,12.30
2022-11-06T05:31:38.521Z,12.50
2022-11-06T05:32:38.509Z,18.50
2022-11-06T05:33:38.522Z,12.80
2022-11-06T05:34:38.501Z,13.00
2022-11-06T05:35:38.484Z,13.50
2022-11-06T05:36:38.927Z,12.90
2022-11-06T05:37:38.488Z,12.30
2022-11-06T05:38:39.172Z,9.60
2022-11-06T05:39:41.828Z,12.30
2022-11-06T05:40:38.455Z,11.80
2022-11-06T05:41:38.468Z,12.80
2022-11-06T05:42:38.452Z,12.60
2022-11-06T05:43:38.435Z,12.50
2022-11-06T05:44:39.163Z,15.10
2022-11-06T05:45:38.433Z,11.10
2022-11-06T05:46:53.836Z,11.90
2022-11-06T05:47:39.851Z,10.50
2022-11-06T05:48:38.404Z,10.70
2022-11-06T05:49:38.442Z,13.70
2022-11-06T05:50:38.384Z,11.70
2022-11-06T05:51:38.387Z,13.10
2022-11-06T05:52:38.375Z,9.70
2022-11-06T05:53:38.372Z,12.90
2022-11-06T05:54:39.346Z,12.60
2022-11-06T05:55:38.353Z,10.90
2022-11-06T05:56:38.360Z,13.40
2022-11-06T05:57:38.551Z,10.20
2022-11-06T05:58:38.341Z,11.00
2022-11-06T05:59:38.357Z,10.90
2022-11-06T06:00:38.342Z,11.20
2022-11-06T06:01:38.494Z,8.50
2022-11-06T06:02:38.447Z,10.60
2022-11-06T06:03:38.309Z,13.00
2022-11-06T06:04:38.302Z,8.40
2022-11-06T06:05:38.490Z,11.50
2022-11-06T06:06:38.291Z,12.00
2022-11-06T06:07:38.297Z,10.80
2022-11-06T06:08:38.284Z,10.20
2022-11-06T06:09:39.083Z,10.10
2022-11-06T06:10:39.236Z,11.20
2022-11-06T06:11:38.263Z,8.50
2022-11-06T06:12:38.250Z,11.70
2022-11-06T06:13:38.234Z,10.90
2022-11-06T06:14:38.233Z,10.70
2022-11-06T06:15:38.274Z,9.90
2022-11-06T06:16:38.219Z,8.70
2022-11-06T06:17:38.216Z,11.70
2022-11-06T06:18:38.213Z,9.50
2022-11-06T06:19:38.219Z,12.20
2022-11-06T06:20:38.217Z,11.90
2022-11-06T06:21:38.220Z,9.80
2022-11-06T06:22:38.186Z,9.60
2022-11-06T06:23:38.174Z,10.20
2022-11-06T06:24:39.576Z,10.10
2022-11-06T06:25:38.176Z,10.90
2022-11-06T06:26:39.481Z,12.00
2022-11-06T06:27:38.142Z,10.80
2022-11-06T06:28:38.226Z,9.60
2022-11-06T06:29:38.142Z,10.20
2022-11-06T06:30:38.131Z,10.40
2022-11-06T06:31:38.119Z,11.00
2022-11-06T06:32:38.112Z,12.50
2022-11-06T06:33:38.111Z,9.90
2022-11-06T06:34:39.201Z,8.80
2022-11-06T06:35:38.099Z,8.30
2022-11-06T06:36:38.087Z,12.40
2022-11-06T06:37:38.100Z,9.90
2022-11-06T06:38:38.081Z,12.60
2022-11-06T06:39:38.060Z,9.80
2022-11-06T06:40:39.045Z,9.80
2022-11-06T06:41:38.055Z,9.70
2022-11-06T06:42:38.038Z,12.90
2022-11-06T06:43:38.054Z,10.20
2022-11-06T06:44:38.036Z,10.00
2022-11-06T06:45:38.025Z,12.50
2022-11-06T06:46:38.019Z,12.10
2022-11-06T06:47:39.274Z,13.90
2022-11-06T06:48:38.000Z,8.80
2022-11-06T06:49:38.003Z,11.10
2022-11-06T06:50:37.993Z,10.50
2022-11-06T06:51:37.984Z,9.80
2022-11-06T06:52:37.972Z,10.70
2022-11-06T06:53:38.008Z,11.70
2022-11-06T06:54:38.010Z,9.20
2022-11-06T06:55:37.965Z,11.20
2022-11-06T06:56:37.958Z,11.10
2022-11-06T06:57:37.953Z,11.10
2022-11-06T06:58:37.967Z,12.60
2022-11-06T06:59:37.940Z,10.00
2022-11-06T07:00:38.045Z,9.50
2022-11-06T07:01:38.144Z,8.50
2022-11-06T07:02:37.910Z,10.70
2022-11-06T07:03:37.915Z,9.40
2022-11-06T07:04:37.918Z,10.50
2022-11-06T07:05:37.899Z,10.00
2022-11-06T07:06:37.879Z,9.80
2022-11-06T07:07:37.886Z,9.80
2022-11-06T07:08:37.876Z,8.30
2022-11-06T07:09:58.893Z,9.30
2022-11-06T07:10:37.861Z,9.80
2022-11-06T07:11:37.849Z,10.10
2022-11-06T07:12:37.845Z,7.90
2022-11-06T07:13:37.847Z,11.20
2022-11-06T07:14:37.831Z,9.20
2022-11-06T07:15:38.005Z,10.70
2022-11-06T07:16:37.822Z,10.90
2022-11-06T07:17:37.837Z,14.50
2022-11-06T07:18:37.813Z,13.50
2022-11-06T07:19:38.151Z,10.30
2022-11-06T07:20:38.158Z,10.00
2022-11-06T07:21:37.794Z,10.70
2022-11-06T07:22:37.976Z,9.20
2022-11-06T07:23:37.774Z,9.90
2022-11-06T07:24:37.767Z,11.40
2022-11-06T07:25:37.804Z,12.70
2022-11-06T07:26:37.849Z,8.40
2022-11-06T07:27:37.841Z,10.30
2022-11-06T07:28:37.747Z,8.20
2022-11-06T07:29:37.738Z,6.60
2022-11-06T07:30:38.170Z,9.80
2022-11-06T07:31:37.719Z,9.90
2022-11-06T07:32:37.746Z,13.30
2022-11-06T07:33:37.717Z,9.30
2022-11-06T07:34:37.700Z,9.40
2022-11-06T07:35:37.700Z,9.40
2022-11-06T07:36:37.704Z,9.90
2022-11-06T07:37:37.679Z,7.60
2022-11-06T07:38:37.681Z,9.60
2022-11-06T07:39:37.665Z,8.70
2022-11-06T07:40:37.660Z,8.60
2022-11-06T07:41:37.694Z,10.20
2022-11-06T07:42:42.350Z,7.60
2022-11-06T07:43:38.643Z,7.80
2022-11-06T07:44:37.641Z,8.50
2022-11-06T07:45:37.626Z,9.40
2022-11-06T07:46:37.621Z,8.60
2022-11-06T07:47:37.612Z,8.90
2022-11-06T07:48:37.603Z,7.90
2022-11-06T07:49:37.612Z,10.10
2022-11-06T07:50:37.588Z,8.70
2022-11-06T07:51:37.590Z,8.30
2022-11-06T07:52:37.578Z,9.00
2022-11-06T07:53:40.289Z,7.00
2022-11-06T07:54:37.552Z,7.00
2022-11-06T07:55:41.972Z,8.00
2022-11-06T07:56:38.544Z,7.00
2022-11-06T07:57:37.558Z,9.50
2022-11-06T07:58:38.266Z,9.20
2022-11-06T07:59:37.516Z,10.80
2022-11-06T08:00:37.592Z,7.80
2022-11-06T08:01:37.667Z,7.90
2022-11-06T08:02:37.635Z,7.00
2022-11-06T08:03:37.513Z,7.40
2022-11-06T08:04:37.493Z,9.10
2022-11-06T08:05:37.486Z,6.80
2022-11-06T08:06:38.421Z,8.80
2022-11-06T08:07:37.462Z,9.40
2022-11-06T08:08:38.450Z,9.50
2022-11-06T08:09:37.457Z,10.30
2022-11-06T08:10:37.449Z,8.70
2022-11-06T08:11:37.437Z,8.10
2022-11-06T08:12:37.426Z,8.80
2022-11-06T08:13:37.450Z,8.80
2022-11-06T08:14:41.467Z,10.00
2022-11-06T08:15:37.414Z,7.90
2022-11-06T08:16:37.402Z,10.00
2022-11-06T08:17:37.391Z,8.70
2022-11-06T08:18:37.392Z,7.70
2022-11-06T08:19:37.395Z,7.40
2022-11-06T08:20:37.370Z,7.90
2022-11-06T08:21:37.412Z,7.60
2022-11-06T08:22:37.354Z,8.90
2022-11-06T08:23:37.357Z,8.20
2022-11-06T08:24:37.350Z,7.60
2022-11-06T08:25:37.335Z,7.10
2022-11-06T08:26:37.328Z,8.10
2022-11-06T08:27:37.331Z,6.80
2022-11-06T08:28:37.357Z,5.50
2022-11-06T08:29:41.293Z,5.70
2022-11-06T08:30:37.942Z,6.90
2022-11-06T08:31:37.289Z,6.40
2022-11-06T08:32:37.280Z,8.40
2022-11-06T08:33:37.289Z,9.50
2022-11-06T08:34:37.281Z,8.30
2022-11-06T08:35:37.267Z,9.50
2022-11-06T08:36:37.262Z,7.50
2022-11-06T08:37:37.245Z,5.90
2022-11-06T08:38:37.956Z,6.60
2022-11-06T08:39:37.265Z,6.70
2022-11-06T08:40:37.225Z,5.50
2022-11-06T08:41:37.238Z,5.70
2022-11-06T08:42:37.230Z,8.60
2022-11-06T08:43:37.217Z,6.60
2022-11-06T08:44:37.201Z,6.80
2022-11-06T08:45:37.313Z,5.40
2022-11-06T08:46:37.692Z,5.50
2022-11-06T08:47:37.182Z,6.20
2022-11-06T08:48:37.166Z,6.60
2022-11-06T08:49:37.170Z,6.80
2022-11-06T08:50:37.609Z,7.80
2022-11-06T08:51:37.172Z,5.80
2022-11-06T08:52:37.198Z,7.40
2022-11-06T08:53:37.206Z,7.70
2022-11-06T08:54:37.138Z,6.70
2022-11-06T08:55:37.117Z,6.20
2022-11-06T08:56:38.415Z,5.90
2022-11-06T08:57:37.117Z,6.30
2022-11-06T08:58:37.100Z,6.30
2022-11-06T08:59:37.087Z,5.00
2022-11-06T09:00:37.081Z,6.30
2022-11-06T09:01:37.237Z,6.60
2022-11-06T09:02:37.178Z,6.70
2022-11-06T09:03:37.067Z,7.50
2022-11-06T09:04:41.366Z,9.90
2022-11-06T09:05:37.041Z,6.20
2022-11-06T09:06:37.040Z,6.30
2022-11-06T09:07:37.025Z,5.40
2022-11-06T09:08:37.020Z,6.40
2022-11-06T09:09:37.019Z,5.90
2022-11-06T09:10:37.003Z,6.90
2022-11-06T09:11:37.029Z,5.50
2022-11-06T09:12:37.006Z,6.80
2022-11-06T09:13:37.568Z,5.10
2022-11-06T09:14:36.975Z,7.80
2022-11-06T09:15:36.979Z,6.90
2022-11-06T09:16:36.965Z,6.60
2022-11-06T09:17:36.973Z,6.00
2022-11-06T09:18:36.948Z,4.90
2022-11-06T09:19:36.935Z,7.50
2022-11-06T09:20:36.929Z,7.90
2022-11-06T09:21:36.930Z,5.00
2022-11-06T09:22:36.912Z,7.30
2022-11-06T09:23:36.917Z,7.60
2022-11-06T09:25:01.224Z,7.40
2022-11-06T09:25:37.889Z,3.90
2022-11-06T09:26:36.891Z,7.00
2022-11-06T09:27:36.883Z,8.90
2022-11-06T09:28:36.867Z,6.70
2022-11-06T09:29:36.868Z,5.40
2022-11-06T09:30:37.289Z,4.90
2022-11-06T09:31:36.895Z,5.60
2022-11-06T09:32:36.847Z,6.90
2022-11-06T09:33:36.867Z,6.30
2022-11-06T09:34:36.833Z,5.00
2022-11-06T09:35:36.824Z,7.60
2022-11-06T09:36:36.812Z,4.90
2022-11-06T09:37:36.826Z,6.80
2022-11-06T09:38:36.800Z,5.40
2022-11-06T09:39:36.802Z,7.30
2022-11-06T09:40:36.798Z,6.70
2022-11-06T09:41:36.780Z,6.60
2022-11-06T09:42:37.553Z,6.30
2022-11-06T09:44:03.429Z,6.00
2022-11-06T09:44:37.754Z,5.70
2022-11-06T09:45:36.760Z,7.30
2022-11-06T09:46:36.741Z,4.70
2022-11-06T09:47:36.745Z,7.70
2022-11-06T09:48:36.735Z,9.00
2022-11-06T09:49:36.754Z,4.10
2022-11-06T09:50:36.725Z,6.40
2022-11-06T09:51:36.729Z,5.20
2022-11-06T09:52:36.736Z,4.20
2022-11-06T09:53:36.700Z,9.60
2022-11-06T09:54:36.694Z,4.90
2022-11-06T09:55:36.676Z,4.60
2022-11-06T09:56:36.676Z,5.00
2022-11-06T09:57:36.676Z,5.30
2022-11-06T09:58:36.663Z,4.80
2022-11-06T09:59:36.668Z,4.50
2022-11-06T10:00:36.664Z,3.60
2022-11-06T10:01:36.792Z,6.10
2022-11-06T10:02:36.704Z,6.60
2022-11-06T10:03:36.624Z,6.10
2022-11-06T10:04:36.629Z,7.10
2022-11-06T10:05:36.741Z,7.10
2022-11-06T10:06:36.612Z,4.80
2022-11-06T10:07:36.589Z,4.80
2022-11-06T10:08:36.598Z,6.80
2022-11-06T10:09:36.572Z,5.70
2022-11-06T10:10:37.584Z,5.40
2022-11-06T10:11:36.568Z,7.30
2022-11-06T10:12:36.556Z,5.10
2022-11-06T10:13:36.559Z,5.00
2022-11-06T10:14:36.542Z,5.10
2022-11-06T10:15:36.531Z,4.70
2022-11-06T10:16:37.704Z,6.30
2022-11-06T10:17:36.525Z,7.80
2022-11-06T10:18:36.512Z,10.70
2022-11-06T10:19:36.509Z,5.50
2022-11-06T10:20:36.503Z,5.40
2022-11-06T10:21:37.241Z,4.90
2022-11-06T10:22:36.488Z,4.40
2022-11-06T10:23:36.496Z,3.60
2022-11-06T10:24:36.466Z,4.60
2022-11-06T10:25:36.465Z,4.80
2022-11-06T10:26:36.454Z,5.00
2022-11-06T10:27:36.483Z,6.20
2022-11-06T10:28:36.445Z,3.80
2022-11-06T10:29:36.447Z,4.90
2022-11-06T10:30:36.510Z,3.40
2022-11-06T10:31:36.421Z,4.60
2022-11-06T10:32:36.418Z,3.10
2022-11-06T10:33:36.432Z,5.80
2022-11-06T10:34:36.404Z,3.10
2022-11-06T10:35:38.019Z,4.70
2022-11-06T10:36:36.380Z,3.50
2022-11-06T10:37:36.680Z,2.90
2022-11-06T10:38:36.370Z,4.90
2022-11-06T10:39:36.365Z,6.30
2022-11-06T10:40:36.359Z,6.20
2022-11-06T10:41:36.771Z,5.20
2022-11-06T10:42:38.325Z,5.20
2022-11-06T10:43:36.335Z,5.20
2022-11-06T10:44:36.342Z,3.30
2022-11-06T10:45:36.322Z,6.20
2022-11-06T10:46:36.506Z,6.20
2022-11-06T10:47:36.301Z,4.00
2022-11-06T10:48:41.164Z,4.30
2022-11-06T10:49:37.295Z,4.40
2022-11-06T10:50:36.281Z,3.30
2022-11-06T10:51:36.270Z,5.30
2022-11-06T10:52:37.516Z,4.00
2022-11-06T10:53:36.292Z,4.30
2022-11-06T10:54:36.270Z,3.10
2022-11-06T10:55:36.249Z,4.00
2022-11-06T10:56:36.237Z,3.60
2022-11-06T10:57:36.235Z,4.60
2022-11-06T10:58:36.984Z,4.80
2022-11-06T10:59:36.217Z,4.20
2022-11-06T11:00:36.212Z,4.00
2022-11-06T11:01:36.373Z,4.40
2022-11-06T11:02:36.321Z,3.00
2022-11-06T11:03:36.216Z,3.70
2022-11-06T11:04:36.175Z,6.10
2022-11-06T11:05:36.169Z,4.60
2022-11-06T11:06:36.195Z,4.00
2022-11-06T11:07:36.160Z,5.00
2022-11-06T11:08:36.145Z,4.10
2022-11-06T11:09:36.533Z,3.40
2022-11-06T11:10:36.129Z,4.40
2022-11-06T11:11:36.138Z,4.10
2022-11-06T11:12:36.125Z,5.20
2022-11-06T11:13:36.152Z,4.60
2022-11-06T11:14:36.124Z,3.20
2022-11-06T11:15:41.777Z,5.80
2022-11-06T11:18:02.752Z,4.50
2022-11-06T11:19:02.460Z,4.00
2022-11-06T11:20:02.455Z,4.30
2022-11-06T11:21:02.446Z,4.40
2022-11-06T11:22:02.448Z,2.80
2022-11-06T11:23:02.493Z,4.10
2022-11-06T11:24:02.454Z,6.00
2022-11-06T11:25:02.441Z,3.20
2022-11-06T11:26:02.419Z,5.00
2022-11-06T11:27:02.422Z,3.80
2022-11-06T11:28:04.934Z,4.80
2022-11-06T11:29:02.395Z,4.10
2022-11-06T11:30:02.385Z,5.00
2022-11-06T11:31:03.257Z,2.50
2022-11-06T11:32:02.387Z,2.80
2022-11-06T11:33:02.371Z,2.20
2022-11-06T11:34:02.355Z,3.90
2022-11-06T11:35:02.356Z,5.10
2022-11-06T11:36:02.359Z,4.60
2022-11-06T11:37:02.333Z,4.60
2022-11-06T11:38:02.331Z,3.30
2022-11-06T11:39:02.337Z,2.00
2022-11-06T11:40:02.313Z,5.00
2022-11-06T11:41:02.337Z,2.70
2022-11-06T11:42:02.288Z,3.10
2022-11-06T11:43:02.301Z,3.60
2022-11-06T11:44:02.840Z,4.50
2022-11-06T11:45:02.280Z,4.10
2022-11-06T11:46:02.387Z,2.50
2022-11-06T11:47:05.569Z,3.40
2022-11-06T11:48:03.263Z,3.40
2022-11-06T11:49:17.140Z,6.20
2022-11-06T11:50:02.266Z,3.10
2022-11-06T11:51:02.227Z,3.00
2022-11-06T11:52:02.233Z,5.30
2022-11-06T11:54:12.881Z,2.80
2022-11-06T11:55:12.890Z,3.40
2022-11-06T11:56:12.914Z,4.70
2022-11-06T11:57:12.914Z,3.40
2022-11-06T11:58:13.184Z,3.30
2022-11-06T11:59:12.846Z,4.50
2022-11-06T12:00:12.829Z,2.30
2022-11-06T12:01:12.830Z,2.80
2022-11-06T12:02:13.076Z,3.30
2022-11-06T12:03:13.463Z,3.60
2022-11-06T12:04:12.824Z,3.00
2022-11-06T12:05:12.814Z,2.30
2022-11-06T12:06:12.785Z,3.70
2022-11-06T12:07:12.794Z,5.80
2022-11-06T12:08:13.285Z,11.20
2022-11-06T12:09:12.776Z,27.10
2022-11-06T12:10:12.886Z,3.10
2022-11-06T12:11:12.773Z,2.50
2022-11-06T12:12:13.986Z,6.80
2022-11-06T12:13:12.741Z,2.40
2022-11-06T12:14:12.723Z,3.70
2022-11-06T12:15:12.781Z,2.20
2022-11-06T12:16:12.780Z,4.40
2022-11-06T12:17:12.706Z,17.10
2022-11-06T12:18:13.053Z,15.70
2022-11-06T12:19:12.690Z,6.70
2022-11-06T12:20:13.498Z,2.80
2022-11-06T12:21:12.687Z,1.80
2022-11-06T12:22:12.670Z,28.30
2022-11-06T12:23:12.680Z,7.50
2022-11-06T12:24:12.664Z,11.20
2022-11-06T12:25:12.654Z,7.00
2022-11-06T12:26:12.671Z,3.70
2022-11-06T12:27:12.636Z,2.60
2022-11-06T12:28:12.988Z,2.30
2022-11-06T12:29:12.646Z,26.10
2022-11-06T12:30:13.458Z,15.20
2022-11-06T12:31:12.608Z,10.70
2022-11-06T12:32:12.603Z,4.60
2022-11-06T12:33:12.626Z,4.30
2022-11-06T12:34:17.259Z,2.80
2022-11-06T12:35:13.579Z,2.70
2022-11-06T12:36:12.612Z,2.40
2022-11-06T12:37:12.559Z,2.20
2022-11-06T12:38:13.078Z,2.90
2022-11-06T12:39:12.553Z,2.10
2022-11-06T12:40:12.540Z,3.60
2022-11-06T12:41:12.543Z,3.20
2022-11-06T12:42:13.501Z,1.70
2022-11-06T12:43:12.509Z,2.80
2022-11-06T12:44:12.549Z,3.90
2022-11-06T12:45:12.504Z,2.80
2022-11-06T12:46:12.507Z,3.30
2022-11-06T12:47:12.539Z,2.30
2022-11-06T12:48:12.799Z,2.60
2022-11-06T12:49:13.111Z,1.70
2022-11-06T12:50:12.470Z,2.40
2022-11-06T12:51:12.461Z,1.20
2022-11-06T12:52:12.764Z,2.40
2022-11-06T12:53:12.486Z,1.70
2022-11-06T12:54:12.436Z,1.40
2022-11-06T12:55:13.628Z,1.90
2022-11-06T12:56:12.451Z,2.20
2022-11-06T12:57:12.423Z,3.20
2022-11-06T12:58:12.906Z,2.40
2022-11-06T12:59:12.410Z,1.80
2022-11-06T13:00:12.526Z,2.40
2022-11-06T13:01:12.858Z,1.70
2022-11-06T13:02:12.468Z,2.20
2022-11-06T13:03:12.374Z,2.10
2022-11-06T13:04:12.370Z,2.50
2022-11-06T13:05:12.388Z,2.10
2022-11-06T13:06:13.630Z,5.30
2022-11-06T13:07:12.353Z,1.90